sensor_id;sensor_type;location;lat;lon;timestamp;temperature;humidity
23143;DHT22;11740;51.168;4.112;2023-02-22T00:00:19;5.60;99.90
23143;DHT22;11740;51.168;4.112;2023-02-22T00:03:02;5.50;99.90
23143;DHT22;11740;51.168;4.112;2023-02-22T00:05:29;5.60;99.90
23143;DHT22;11740;51.168;4.112;2023-02-22T00:07:57;5.50;99.90
23143;DHT22;11740;51.168;4.112;2023-02-22T00:10:24;5.60;99.90
23143;DHT22;11740;51.168;4.112;2023-02-22T00:12:52;5.50;99.90
23143;DHT22;11740;51.168;4.112;2023-02-22T00:15:22;5.50;99.90
23143;DHT22;11740;51.168;4.112;2023-02-22T00:17:53;5.50;99.90
23143;DHT22;11740;51.168;4.112;2023-02-22T00:20:20;5.50;99.90
23143;DHT22;11740;51.168;4.112;2023-02-22T00:22:49;5.50;99.90
23143;DHT22;11740;51.168;4.112;2023-02-22T00:25:18;5.50;99.90
23143;DHT22;11740;51.168;4.112;2023-02-22T00:27:46;5.50;99.90
23143;DHT22;11740;51.168;4.112;2023-02-22T00:30:15;5.50;99.90
23143;DHT22;11740;51.168;4.112;2023-02-22T00:32:45;5.50;99.90
23143;DHT22;11740;51.168;4.112;2023-02-22T00:35:13;5.50;99.90
23143;DHT22;11740;51.168;4.112;2023-02-22T00:37:41;5.50;99.90
23143;DHT22;11740;51.168;4.112;2023-02-22T00:40:09;5.40;99.90
23143;DHT22;11740;51.168;4.112;2023-02-22T00:42:37;5.40;99.90
23143;DHT22;11740;51.168;4.112;2023-02-22T00:45:04;5.40;99.90
23143;DHT22;11740;51.168;4.112;2023-02-22T00:47:31;5.40;99.90
23143;DHT22;11740;51.168;4.112;2023-02-22T00:49:58;5.40;99.90
23143;DHT22;11740;51.168;4.112;2023-02-22T00:52:26;5.40;99.90
23143;DHT22;11740;51.168;4.112;2023-02-22T00:54:54;5.40;99.90
23143;DHT22;11740;51.168;4.112;2023-02-22T00:57:21;5.40;99.90
23143;DHT22;11740;51.168;4.112;2023-02-22T00:59:48;5.40;99.90
23143;DHT22;11740;51.168;4.112;2023-02-22T01:02:15;5.40;99.90
23143;DHT22;11740;51.168;4.112;2023-02-22T01:04:43;5.40;1.00
23143;DHT22;11740;51.168;4.112;2023-02-22T01:07:10;5.40;99.90
23143;DHT22;11740;51.168;4.112;2023-02-22T01:09:39;5.40;99.90
23143;DHT22;11740;51.168;4.112;2023-02-22T01:12:07;5.40;99.90
23143;DHT22;11740;51.168;4.112;2023-02-22T01:14:33;5.30;1.00
23143;DHT22;11740;51.168;4.112;2023-02-22T01:17:00;5.30;1.00
23143;DHT22;11740;51.168;4.112;2023-02-22T01:19:27;5.30;1.00
23143;DHT22;11740;51.168;4.112;2023-02-22T01:21:54;5.30;1.00
23143;DHT22;11740;51.168;4.112;2023-02-22T01:24:21;5.30;1.00
23143;DHT22;11740;51.168;4.112;2023-02-22T01:26:49;5.30;1.00
23143;DHT22;11740;51.168;4.112;2023-02-22T01:29:17;5.30;1.00
23143;DHT22;11740;51.168;4.112;2023-02-22T01:31:50;5.30;1.00
23143;DHT22;11740;51.168;4.112;2023-02-22T01:34:20;5.30;1.00
23143;DHT22;11740;51.168;4.112;2023-02-22T01:36:48;5.30;1.00
23143;DHT22;11740;51.168;4.112;2023-02-22T01:39:15;5.30;1.00
23143;DHT22;11740;51.168;4.112;2023-02-22T01:41:44;5.30;1.00
23143;DHT22;11740;51.168;4.112;2023-02-22T01:46:53;5.30;1.00
23143;DHT22;11740;51.168;4.112;2023-02-22T01:49:23;5.40;1.00
23143;DHT22;11740;51.168;4.112;2023-02-22T01:51:55;5.30;1.00
23143;DHT22;11740;51.168;4.112;2023-02-22T01:54:24;5.30;1.00
23143;DHT22;11740;51.168;4.112;2023-02-22T01:56:59;5.30;1.00
23143;DHT22;11740;51.168;4.112;2023-02-22T01:59:32;5.30;1.00
23143;DHT22;11740;51.168;4.112;2023-02-22T02:02:00;5.30;1.00
23143;DHT22;11740;51.168;4.112;2023-02-22T02:04:30;5.30;1.00
23143;DHT22;11740;51.168;4.112;2023-02-22T02:06:59;5.30;1.00
23143;DHT22;11740;51.168;4.112;2023-02-22T02:12:16;5.30;1.00
23143;DHT22;11740;51.168;4.112;2023-02-22T02:14:45;5.30;1.00
23143;DHT22;11740;51.168;4.112;2023-02-22T02:17:12;5.30;1.00
23143;DHT22;11740;51.168;4.112;2023-02-22T02:22:54;5.30;1.00
23143;DHT22;11740;51.168;4.112;2023-02-22T02:34:22;5.30;1.00
23143;DHT22;11740;51.168;4.112;2023-02-22T02:42:38;5.30;1.00
23143;DHT22;11740;51.168;4.112;2023-02-22T02:45:10;5.30;1.00
23143;DHT22;11740;51.168;4.112;2023-02-22T02:47:41;5.20;1.00
23143;DHT22;11740;51.168;4.112;2023-02-22T02:50:15;5.20;1.00
23143;DHT22;11740;51.168;4.112;2023-02-22T02:52:45;5.20;1.00
23143;DHT22;11740;51.168;4.112;2023-02-22T02:55:13;5.20;1.00
23143;DHT22;11740;51.168;4.112;2023-02-22T02:57:40;5.20;1.00
23143;DHT22;11740;51.168;4.112;2023-02-22T03:00:08;5.20;1.00
23143;DHT22;11740;51.168;4.112;2023-02-22T03:05:42;5.20;1.00
23143;DHT22;11740;51.168;4.112;2023-02-22T03:11:20;5.20;1.00
23143;DHT22;11740;51.168;4.112;2023-02-22T03:14:06;5.20;1.00
23143;DHT22;11740;51.168;4.112;2023-02-22T03:22:09;5.20;1.00
23143;DHT22;11740;51.168;4.112;2023-02-22T03:24:50;5.20;1.00
23143;DHT22;11740;51.168;4.112;2023-02-22T03:30:10;5.20;1.00
23143;DHT22;11740;51.168;4.112;2023-02-22T03:32:59;5.10;1.00
23143;DHT22;11740;51.168;4.112;2023-02-22T03:35:35;5.10;1.00
23143;DHT22;11740;51.168;4.112;2023-02-22T03:38:07;5.10;1.00
23143;DHT22;11740;51.168;4.112;2023-02-22T03:40:37;5.10;1.00
23143;DHT22;11740;51.168;4.112;2023-02-22T03:43:09;5.10;1.00
23143;DHT22;11740;51.168;4.112;2023-02-22T03:45:43;5.10;1.00
23143;DHT22;11740;51.168;4.112;2023-02-22T03:51:12;5.10;1.00
23143;DHT22;11740;51.168;4.112;2023-02-22T03:53:42;5.10;1.00
23143;DHT22;11740;51.168;4.112;2023-02-22T03:56:21;5.10;1.00
23143;DHT22;11740;51.168;4.112;2023-02-22T03:58:51;5.10;1.00
23143;DHT22;11740;51.168;4.112;2023-02-22T04:01:18;5.10;1.00
23143;DHT22;11740;51.168;4.112;2023-02-22T04:03:49;5.10;1.00
23143;DHT22;11740;51.168;4.112;2023-02-22T04:06:15;5.10;1.00
23143;DHT22;11740;51.168;4.112;2023-02-22T04:08:42;5.10;1.00
23143;DHT22;11740;51.168;4.112;2023-02-22T04:11:09;5.10;1.00
23143;DHT22;11740;51.168;4.112;2023-02-22T04:13:36;5.10;1.00
23143;DHT22;11740;51.168;4.112;2023-02-22T04:16:03;5.10;1.00
23143;DHT22;11740;51.168;4.112;2023-02-22T04:18:30;5.00;1.00
23143;DHT22;11740;51.168;4.112;2023-02-22T04:20:57;5.00;1.00
23143;DHT22;11740;51.168;4.112;2023-02-22T04:23:24;5.00;1.00
23143;DHT22;11740;51.168;4.112;2023-02-22T04:25:52;5.00;1.00
23143;DHT22;11740;51.168;4.112;2023-02-22T04:28:19;5.00;1.00
23143;DHT22;11740;51.168;4.112;2023-02-22T04:30:46;5.00;1.00
23143;DHT22;11740;51.168;4.112;2023-02-22T04:33:13;5.00;1.00
23143;DHT22;11740;51.168;4.112;2023-02-22T04:35:41;5.00;1.00
23143;DHT22;11740;51.168;4.112;2023-02-22T04:38:08;5.00;1.00
23143;DHT22;11740;51.168;4.112;2023-02-22T04:40:35;5.10;1.00
23143;DHT22;11740;51.168;4.112;2023-02-22T04:43:02;5.10;1.00
23143;DHT22;11740;51.168;4.112;2023-02-22T04:45:29;5.00;1.00
23143;DHT22;11740;51.168;4.112;2023-02-22T04:47:56;5.10;1.00
23143;DHT22;11740;51.168;4.112;2023-02-22T04:50:23;5.00;1.00
23143;DHT22;11740;51.168;4.112;2023-02-22T04:52:50;5.10;1.00
23143;DHT22;11740;51.168;4.112;2023-02-22T04:55:17;5.10;1.00
23143;DHT22;11740;51.168;4.112;2023-02-22T04:57:44;5.00;1.00
23143;DHT22;11740;51.168;4.112;2023-02-22T05:00:14;5.10;1.00
23143;DHT22;11740;51.168;4.112;2023-02-22T05:02:42;5.00;1.00
23143;DHT22;11740;51.168;4.112;2023-02-22T05:05:09;5.00;1.00
23143;DHT22;11740;51.168;4.112;2023-02-22T05:07:36;5.00;1.00
23143;DHT22;11740;51.168;4.112;2023-02-22T05:10:03;5.00;1.00
23143;DHT22;11740;51.168;4.112;2023-02-22T05:12:30;5.00;1.00
23143;DHT22;11740;51.168;4.112;2023-02-22T05:14:57;5.00;1.00
23143;DHT22;11740;51.168;4.112;2023-02-22T05:17:24;5.00;1.00
23143;DHT22;11740;51.168;4.112;2023-02-22T05:19:50;5.00;1.00
23143;DHT22;11740;51.168;4.112;2023-02-22T05:22:17;5.00;1.00
23143;DHT22;11740;51.168;4.112;2023-02-22T05:24:44;5.00;1.00
23143;DHT22;11740;51.168;4.112;2023-02-22T05:27:11;5.00;1.00
23143;DHT22;11740;51.168;4.112;2023-02-22T05:29:38;4.90;1.00
23143;DHT22;11740;51.168;4.112;2023-02-22T05:32:05;5.00;1.00
23143;DHT22;11740;51.168;4.112;2023-02-22T05:34:32;5.00;1.00
23143;DHT22;11740;51.168;4.112;2023-02-22T05:36:59;4.90;1.00
23143;DHT22;11740;51.168;4.112;2023-02-22T05:39:26;4.90;1.00
23143;DHT22;11740;51.168;4.112;2023-02-22T05:41:52;4.90;1.00
23143;DHT22;11740;51.168;4.112;2023-02-22T05:44:19;4.90;1.00
23143;DHT22;11740;51.168;4.112;2023-02-22T05:46:46;4.90;1.00
23143;DHT22;11740;51.168;4.112;2023-02-22T05:49:14;4.90;1.00
23143;DHT22;11740;51.168;4.112;2023-02-22T05:51:41;4.90;1.00
23143;DHT22;11740;51.168;4.112;2023-02-22T05:54:08;4.90;1.00
23143;DHT22;11740;51.168;4.112;2023-02-22T05:56:34;4.90;1.00
23143;DHT22;11740;51.168;4.112;2023-02-22T05:59:02;4.90;1.00
23143;DHT22;11740;51.168;4.112;2023-02-22T06:01:29;4.80;1.00
23143;DHT22;11740;51.168;4.112;2023-02-22T06:03:55;4.80;1.00
23143;DHT22;11740;51.168;4.112;2023-02-22T06:06:22;4.80;1.00
23143;DHT22;11740;51.168;4.112;2023-02-22T06:08:49;4.80;1.00
23143;DHT22;11740;51.168;4.112;2023-02-22T06:11:16;4.80;1.00
23143;DHT22;11740;51.168;4.112;2023-02-22T06:13:48;4.80;1.00
23143;DHT22;11740;51.168;4.112;2023-02-22T06:16:15;4.80;1.00
23143;DHT22;11740;51.168;4.112;2023-02-22T06:18:42;4.70;1.00
23143;DHT22;11740;51.168;4.112;2023-02-22T06:21:09;4.80;1.00
23143;DHT22;11740;51.168;4.112;2023-02-22T06:23:36;4.70;1.00
23143;DHT22;11740;51.168;4.112;2023-02-22T06:26:03;4.80;1.00
23143;DHT22;11740;51.168;4.112;2023-02-22T06:28:30;4.70;1.00
23143;DHT22;11740;51.168;4.112;2023-02-22T06:30:57;4.70;1.00
23143;DHT22;11740;51.168;4.112;2023-02-22T06:33:24;4.80;1.00
23143;DHT22;11740;51.168;4.112;2023-02-22T06:35:51;4.70;1.00
23143;DHT22;11740;51.168;4.112;2023-02-22T06:38:21;4.70;1.00
23143;DHT22;11740;51.168;4.112;2023-02-22T06:40:49;4.70;99.90
23143;DHT22;11740;51.168;4.112;2023-02-22T06:43:16;4.70;99.90
23143;DHT22;11740;51.168;4.112;2023-02-22T06:45:43;4.70;99.90
23143;DHT22;11740;51.168;4.112;2023-02-22T06:48:10;4.70;99.90
23143;DHT22;11740;51.168;4.112;2023-02-22T06:50:37;4.70;99.90
23143;DHT22;11740;51.168;4.112;2023-02-22T06:53:04;4.70;99.90
23143;DHT22;11740;51.168;4.112;2023-02-22T06:55:31;4.70;99.90
23143;DHT22;11740;51.168;4.112;2023-02-22T06:57:59;4.70;99.90
23143;DHT22;11740;51.168;4.112;2023-02-22T07:00:27;4.70;99.90
23143;DHT22;11740;51.168;4.112;2023-02-22T07:02:55;4.60;99.90
23143;DHT22;11740;51.168;4.112;2023-02-22T07:05:23;4.70;99.90
23143;DHT22;11740;51.168;4.112;2023-02-22T07:07:51;4.60;99.90
23143;DHT22;11740;51.168;4.112;2023-02-22T07:10:20;4.70;99.90
23143;DHT22;11740;51.168;4.112;2023-02-22T07:12:49;4.60;99.90
23143;DHT22;11740;51.168;4.112;2023-02-22T07:15:21;4.60;99.90
23143;DHT22;11740;51.168;4.112;2023-02-22T07:17:52;4.60;99.90
23143;DHT22;11740;51.168;4.112;2023-02-22T07:20:20;4.60;99.90
23143;DHT22;11740;51.168;4.112;2023-02-22T07:22:47;4.60;40.60
23143;DHT22;11740;51.168;4.112;2023-02-22T07:25:14;4.60;21.00
23143;DHT22;11740;51.168;4.112;2023-02-22T07:27:41;4.60;1.00
23143;DHT22;11740;51.168;4.112;2023-02-22T07:30:20;4.60;1.00
23143;DHT22;11740;51.168;4.112;2023-02-22T07:32:59;4.60;1.00
23143;DHT22;11740;51.168;4.112;2023-02-22T07:35:37;4.60;1.00
23143;DHT22;11740;51.168;4.112;2023-02-22T07:38:05;4.60;1.00
23143;DHT22;11740;51.168;4.112;2023-02-22T07:40:36;4.60;1.00
23143;DHT22;11740;51.168;4.112;2023-02-22T07:43:04;4.60;1.00
23143;DHT22;11740;51.168;4.112;2023-02-22T07:45:40;4.60;1.00
23143;DHT22;11740;51.168;4.112;2023-02-22T07:48:07;4.60;1.00
23143;DHT22;11740;51.168;4.112;2023-02-22T07:50:34;4.60;1.00
23143;DHT22;11740;51.168;4.112;2023-02-22T07:53:02;4.60;1.00
23143;DHT22;11740;51.168;4.112;2023-02-22T07:55:31;4.70;1.00
23143;DHT22;11740;51.168;4.112;2023-02-22T07:58:00;4.70;1.00
23143;DHT22;11740;51.168;4.112;2023-02-22T08:00:30;4.70;1.00
23143;DHT22;11740;51.168;4.112;2023-02-22T08:03:03;4.70;1.00
23143;DHT22;11740;51.168;4.112;2023-02-22T08:05:32;4.70;1.00
23143;DHT22;11740;51.168;4.112;2023-02-22T08:08:00;4.80;1.00
23143;DHT22;11740;51.168;4.112;2023-02-22T08:10:27;4.80;99.90
23143;DHT22;11740;51.168;4.112;2023-02-22T08:12:55;4.80;1.00
23143;DHT22;11740;51.168;4.112;2023-02-22T08:15:32;4.80;1.00
23143;DHT22;11740;51.168;4.112;2023-02-22T08:18:02;4.80;1.00
23143;DHT22;11740;51.168;4.112;2023-02-22T08:20:30;4.90;1.00
23143;DHT22;11740;51.168;4.112;2023-02-22T08:22:57;4.80;99.90
23143;DHT22;11740;51.168;4.112;2023-02-22T08:25:25;4.90;99.90
23143;DHT22;11740;51.168;4.112;2023-02-22T08:28:00;4.90;99.90
23143;DHT22;11740;51.168;4.112;2023-02-22T08:30:30;4.90;1.00
23143;DHT22;11740;51.168;4.112;2023-02-22T08:33:00;4.90;1.00
23143;DHT22;11740;51.168;4.112;2023-02-22T08:35:31;4.90;1.00
23143;DHT22;11740;51.168;4.112;2023-02-22T08:37:59;4.90;1.00
23143;DHT22;11740;51.168;4.112;2023-02-22T08:40:28;4.90;1.00
23143;DHT22;11740;51.168;4.112;2023-02-22T08:42:57;5.00;1.00
23143;DHT22;11740;51.168;4.112;2023-02-22T08:45:24;5.00;1.00
23143;DHT22;11740;51.168;4.112;2023-02-22T08:47:51;5.00;1.00
23143;DHT22;11740;51.168;4.112;2023-02-22T08:50:22;5.10;1.00
23143;DHT22;11740;51.168;4.112;2023-02-22T08:52:51;5.10;1.00
23143;DHT22;11740;51.168;4.112;2023-02-22T08:55:23;5.10;1.00
23143;DHT22;11740;51.168;4.112;2023-02-22T08:57:51;5.20;1.00
23143;DHT22;11740;51.168;4.112;2023-02-22T09:00:19;5.30;1.00
23143;DHT22;11740;51.168;4.112;2023-02-22T09:02:50;5.30;99.90
23143;DHT22;11740;51.168;4.112;2023-02-22T09:05:17;5.30;99.90
23143;DHT22;11740;51.168;4.112;2023-02-22T09:07:44;5.40;99.90
23143;DHT22;11740;51.168;4.112;2023-02-22T09:10:15;5.30;99.90
23143;DHT22;11740;51.168;4.112;2023-02-22T09:12:43;5.30;99.90
23143;DHT22;11740;51.168;4.112;2023-02-22T09:15:10;5.40;99.90
23143;DHT22;11740;51.168;4.112;2023-02-22T09:17:38;5.40;99.90
23143;DHT22;11740;51.168;4.112;2023-02-22T09:20:05;5.50;99.90
23143;DHT22;11740;51.168;4.112;2023-02-22T09:22:33;5.50;99.90
23143;DHT22;11740;51.168;4.112;2023-02-22T09:25:00;5.60;1.00
23143;DHT22;11740;51.168;4.112;2023-02-22T09:27:40;5.60;1.00
23143;DHT22;11740;51.168;4.112;2023-02-22T09:30:20;5.60;99.90
23143;DHT22;11740;51.168;4.112;2023-02-22T09:32:54;5.70;99.90
23143;DHT22;11740;51.168;4.112;2023-02-22T09:35:24;5.70;99.90
23143;DHT22;11740;51.168;4.112;2023-02-22T09:37:56;5.80;99.90
23143;DHT22;11740;51.168;4.112;2023-02-22T09:40:25;5.80;99.90
23143;DHT22;11740;51.168;4.112;2023-02-22T09:43:00;5.90;99.90
23143;DHT22;11740;51.168;4.112;2023-02-22T09:45:41;5.90;99.90
23143;DHT22;11740;51.168;4.112;2023-02-22T09:48:21;6.00;99.90
23143;DHT22;11740;51.168;4.112;2023-02-22T09:50:48;6.10;99.90
23143;DHT22;11740;51.168;4.112;2023-02-22T09:56:08;6.20;99.90
23143;DHT22;11740;51.168;4.112;2023-02-22T09:58:44;6.20;99.90
23143;DHT22;11740;51.168;4.112;2023-02-22T10:01:24;6.20;99.90
23143;DHT22;11740;51.168;4.112;2023-02-22T10:03:55;6.30;99.90
23143;DHT22;11740;51.168;4.112;2023-02-22T10:06:27;6.40;99.90
23143;DHT22;11740;51.168;4.112;2023-02-22T10:08:56;6.40;99.90
23143;DHT22;11740;51.168;4.112;2023-02-22T10:14:05;6.50;99.90
23143;DHT22;11740;51.168;4.112;2023-02-22T10:16:37;6.60;99.90
23143;DHT22;11740;51.168;4.112;2023-02-22T10:27:12;6.70;66.00
23143;DHT22;11740;51.168;4.112;2023-02-22T10:29:44;6.80;90.10
23143;DHT22;11740;51.168;4.112;2023-02-22T10:32:14;6.90;99.90
23143;DHT22;11740;51.168;4.112;2023-02-22T10:34:46;7.00;78.50
23143;DHT22;11740;51.168;4.112;2023-02-22T10:37:25;7.10;99.90
23143;DHT22;11740;51.168;4.112;2023-02-22T10:40:10;7.10;21.30
23143;DHT22;11740;51.168;4.112;2023-02-22T10:42:49;7.20;99.90
23143;DHT22;11740;51.168;4.112;2023-02-22T10:45:24;7.20;99.90
23143;DHT22;11740;51.168;4.112;2023-02-22T10:47:58;7.30;99.90
23143;DHT22;11740;51.168;4.112;2023-02-22T10:50:28;7.30;91.90
23143;DHT22;11740;51.168;4.112;2023-02-22T10:52:56;7.30;99.90
23143;DHT22;11740;51.168;4.112;2023-02-22T10:55:23;7.40;99.90
23143;DHT22;11740;51.168;4.112;2023-02-22T10:57:50;7.50;99.90
23143;DHT22;11740;51.168;4.112;2023-02-22T11:00:29;7.50;99.90
23143;DHT22;11740;51.168;4.112;2023-02-22T11:03:24;7.60;99.90
23143;DHT22;11740;51.168;4.112;2023-02-22T11:05:49;7.70;99.90
23143;DHT22;11740;51.168;4.112;2023-02-22T11:08:28;7.80;99.90
23143;DHT22;11740;51.168;4.112;2023-02-22T11:11:03;7.90;99.90
23143;DHT22;11740;51.168;4.112;2023-02-22T11:13:49;8.00;1.00
23143;DHT22;11740;51.168;4.112;2023-02-22T11:16:26;8.10;1.00
23143;DHT22;11740;51.168;4.112;2023-02-22T11:19:00;8.10;1.00
23143;DHT22;11740;51.168;4.112;2023-02-22T11:21:28;8.20;1.00
23143;DHT22;11740;51.168;4.112;2023-02-22T11:24:01;8.20;1.00
23143;DHT22;11740;51.168;4.112;2023-02-22T11:26:35;8.20;1.00
23143;DHT22;11740;51.168;4.112;2023-02-22T11:29:10;8.30;1.00
23143;DHT22;11740;51.168;4.112;2023-02-22T11:31:40;8.30;1.00
23143;DHT22;11740;51.168;4.112;2023-02-22T11:34:23;8.50;1.00
23143;DHT22;11740;51.168;4.112;2023-02-22T11:36:52;8.50;1.00
23143;DHT22;11740;51.168;4.112;2023-02-22T11:39:21;8.50;1.00
23143;DHT22;11740;51.168;4.112;2023-02-22T11:41:53;8.50;1.00
23143;DHT22;11740;51.168;4.112;2023-02-22T11:46:49;8.60;1.00
23143;DHT22;11740;51.168;4.112;2023-02-22T11:49:17;8.70;1.00
23143;DHT22;11740;51.168;4.112;2023-02-22T11:58:00;8.90;1.00
23143;DHT22;11740;51.168;4.112;2023-02-22T12:14:29;9.20;1.00
23143;DHT22;11740;51.168;4.112;2023-02-22T12:17:39;9.20;1.00
23143;DHT22;11740;51.168;4.112;2023-02-22T12:22:46;9.30;1.00
23143;DHT22;11740;51.168;4.112;2023-02-22T12:36:47;9.60;99.90
23143;DHT22;11740;51.168;4.112;2023-02-22T12:39:41;9.70;1.00
23143;DHT22;11740;51.168;4.112;2023-02-22T12:47:59;9.90;89.90
23143;DHT22;11740;51.168;4.112;2023-02-22T12:50:48;9.90;99.90
23143;DHT22;11740;51.168;4.112;2023-02-22T12:53:27;9.90;99.90
23143;DHT22;11740;51.168;4.112;2023-02-22T12:56:23;10.00;99.90
23143;DHT22;11740;51.168;4.112;2023-02-22T12:58:54;10.00;70.90
23143;DHT22;11740;51.168;4.112;2023-02-22T13:01:26;10.00;98.40
23143;DHT22;11740;51.168;4.112;2023-02-22T13:03:58;10.00;99.90
23143;DHT22;11740;51.168;4.112;2023-02-22T13:20:28;10.00;1.00
23143;DHT22;11740;51.168;4.112;2023-02-22T13:28:23;10.00;86.00
23143;DHT22;11740;51.168;4.112;2023-02-22T13:53:38;9.90;99.90
23143;DHT22;11740;51.168;4.112;2023-02-22T13:56:12;9.80;99.90
23143;DHT22;11740;51.168;4.112;2023-02-22T13:58:47;9.90;99.90
23143;DHT22;11740;51.168;4.112;2023-02-22T14:02:02;9.80;99.90
23143;DHT22;11740;51.168;4.112;2023-02-22T14:09:56;9.70;99.90
23143;DHT22;11740;51.168;4.112;2023-02-22T14:18:00;9.70;1.00
23143;DHT22;11740;51.168;4.112;2023-02-22T14:20:31;9.60;1.00
23143;DHT22;11740;51.168;4.112;2023-02-22T14:25:52;9.60;1.00
23143;DHT22;11740;51.168;4.112;2023-02-22T14:28:33;9.60;1.00
23143;DHT22;11740;51.168;4.112;2023-02-22T14:31:07;9.60;1.00
23143;DHT22;11740;51.168;4.112;2023-02-22T14:33:49;9.50;1.00
23143;DHT22;11740;51.168;4.112;2023-02-22T14:41:59;9.60;1.00
23143;DHT22;11740;51.168;4.112;2023-02-22T14:44:32;9.60;1.00
23143;DHT22;11740;51.168;4.112;2023-02-22T14:47:03;9.60;1.00
23143;DHT22;11740;51.168;4.112;2023-02-22T14:49:33;9.60;24.50
23143;DHT22;11740;51.168;4.112;2023-02-22T14:52:10;9.60;99.90
23143;DHT22;11740;51.168;4.112;2023-02-22T14:54:53;9.60;99.90
23143;DHT22;11740;51.168;4.112;2023-02-22T15:00:06;9.70;99.90
23143;DHT22;11740;51.168;4.112;2023-02-22T15:02:46;9.70;99.90
23143;DHT22;11740;51.168;4.112;2023-02-22T15:05:16;9.70;99.90
23143;DHT22;11740;51.168;4.112;2023-02-22T15:07:51;9.60;99.90
23143;DHT22;11740;51.168;4.112;2023-02-22T15:12:50;9.70;99.90
23143;DHT22;11740;51.168;4.112;2023-02-22T15:15:20;9.60;99.90
23143;DHT22;11740;51.168;4.112;2023-02-22T15:17:51;9.70;99.90
23143;DHT22;11740;51.168;4.112;2023-02-22T15:20:19;9.60;99.90
23143;DHT22;11740;51.168;4.112;2023-02-22T15:22:47;9.60;1.00
23143;DHT22;11740;51.168;4.112;2023-02-22T15:25:15;9.60;1.00
23143;DHT22;11740;51.168;4.112;2023-02-22T15:27:43;9.60;1.00
23143;DHT22;11740;51.168;4.112;2023-02-22T15:30:21;9.70;1.00
23143;DHT22;11740;51.168;4.112;2023-02-22T15:32:52;9.70;1.00
23143;DHT22;11740;51.168;4.112;2023-02-22T15:35:30;9.60;1.00
23143;DHT22;11740;51.168;4.112;2023-02-22T15:38:03;9.70;1.00
23143;DHT22;11740;51.168;4.112;2023-02-22T15:41:26;9.70;1.00
23143;DHT22;11740;51.168;4.112;2023-02-22T15:44:06;9.60;1.00
23143;DHT22;11740;51.168;4.112;2023-02-22T15:46:48;9.60;1.00
23143;DHT22;11740;51.168;4.112;2023-02-22T15:49:20;9.60;1.00
23143;DHT22;11740;51.168;4.112;2023-02-22T15:51:58;9.60;1.00
23143;DHT22;11740;51.168;4.112;2023-02-22T15:54:28;9.60;1.00
23143;DHT22;11740;51.168;4.112;2023-02-22T15:56:56;9.60;1.00
23143;DHT22;11740;51.168;4.112;2023-02-22T15:59:23;9.60;1.00
23143;DHT22;11740;51.168;4.112;2023-02-22T16:01:56;9.60;1.00
23143;DHT22;11740;51.168;4.112;2023-02-22T16:04:26;9.60;1.00
23143;DHT22;11740;51.168;4.112;2023-02-22T16:07:02;9.60;1.00
23143;DHT22;11740;51.168;4.112;2023-02-22T16:09:46;9.60;1.00
23143;DHT22;11740;51.168;4.112;2023-02-22T16:14:45;9.60;1.00
23143;DHT22;11740;51.168;4.112;2023-02-22T16:19:51;9.50;99.90
23143;DHT22;11740;51.168;4.112;2023-02-22T16:28:03;9.60;70.00
23143;DHT22;11740;51.168;4.112;2023-02-22T16:30:33;9.50;68.50
23143;DHT22;11740;51.168;4.112;2023-02-22T16:33:03;9.50;41.90
23143;DHT22;11740;51.168;4.112;2023-02-22T16:35:31;9.50;23.50
23143;DHT22;11740;51.168;4.112;2023-02-22T16:38:02;9.50;99.90
23143;DHT22;11740;51.168;4.112;2023-02-22T16:40:31;9.50;99.90
23143;DHT22;11740;51.168;4.112;2023-02-22T16:43:07;9.50;58.30
23143;DHT22;11740;51.168;4.112;2023-02-22T16:45:37;9.50;99.90
23143;DHT22;11740;51.168;4.112;2023-02-22T16:50:41;9.50;99.90
23143;DHT22;11740;51.168;4.112;2023-02-22T16:53:08;9.50;99.90
23143;DHT22;11740;51.168;4.112;2023-02-22T16:55:35;9.50;99.90
23143;DHT22;11740;51.168;4.112;2023-02-22T16:58:02;9.50;99.90
23143;DHT22;11740;51.168;4.112;2023-02-22T17:00:29;9.50;99.90
23143;DHT22;11740;51.168;4.112;2023-02-22T17:02:57;9.50;99.90
23143;DHT22;11740;51.168;4.112;2023-02-22T17:05:25;9.40;99.90
23143;DHT22;11740;51.168;4.112;2023-02-22T17:07:52;9.40;99.90
23143;DHT22;11740;51.168;4.112;2023-02-22T17:10:18;9.40;99.90
23143;DHT22;11740;51.168;4.112;2023-02-22T17:12:46;9.40;99.90
23143;DHT22;11740;51.168;4.112;2023-02-22T17:15:18;9.40;99.90
23143;DHT22;11740;51.168;4.112;2023-02-22T17:17:49;9.40;55.60
23143;DHT22;11740;51.168;4.112;2023-02-22T17:20:17;9.40;77.90
23143;DHT22;11740;51.168;4.112;2023-02-22T17:25:32;9.40;99.90
23143;DHT22;11740;51.168;4.112;2023-02-22T17:28:04;9.40;99.90
23143;DHT22;11740;51.168;4.112;2023-02-22T17:30:31;9.40;99.90
23143;DHT22;11740;51.168;4.112;2023-02-22T17:32:59;9.40;99.90
23143;DHT22;11740;51.168;4.112;2023-02-22T17:35:30;9.40;99.90
23143;DHT22;11740;51.168;4.112;2023-02-22T17:38:02;9.40;99.90
23143;DHT22;11740;51.168;4.112;2023-02-22T17:40:32;9.30;99.90
23143;DHT22;11740;51.168;4.112;2023-02-22T17:43:00;9.40;99.90
23143;DHT22;11740;51.168;4.112;2023-02-22T17:45:27;9.30;99.90
23143;DHT22;11740;51.168;4.112;2023-02-22T17:47:55;9.30;99.90
23143;DHT22;11740;51.168;4.112;2023-02-22T17:50:25;9.30;99.90
23143;DHT22;11740;51.168;4.112;2023-02-22T17:52:52;9.30;99.90
23143;DHT22;11740;51.168;4.112;2023-02-22T17:55:19;9.30;99.90
23143;DHT22;11740;51.168;4.112;2023-02-22T17:57:50;9.30;99.90
23143;DHT22;11740;51.168;4.112;2023-02-22T18:00:18;9.30;99.90
23143;DHT22;11740;51.168;4.112;2023-02-22T18:03:02;9.30;99.90
23143;DHT22;11740;51.168;4.112;2023-02-22T18:05:38;9.30;99.90
23143;DHT22;11740;51.168;4.112;2023-02-22T18:08:06;9.20;99.90
23143;DHT22;11740;51.168;4.112;2023-02-22T18:10:33;9.30;99.90
23143;DHT22;11740;51.168;4.112;2023-02-22T18:13:00;9.30;99.90
23143;DHT22;11740;51.168;4.112;2023-02-22T18:15:27;9.30;99.90
23143;DHT22;11740;51.168;4.112;2023-02-22T18:17:55;9.30;99.90
23143;DHT22;11740;51.168;4.112;2023-02-22T18:20:22;9.20;99.90
23143;DHT22;11740;51.168;4.112;2023-02-22T18:22:57;9.20;99.90
23143;DHT22;11740;51.168;4.112;2023-02-22T18:25:25;9.20;99.90
23143;DHT22;11740;51.168;4.112;2023-02-22T18:27:52;9.20;99.90
23143;DHT22;11740;51.168;4.112;2023-02-22T18:30:20;9.20;99.90
23143;DHT22;11740;51.168;4.112;2023-02-22T18:32:47;9.20;99.90
23143;DHT22;11740;51.168;4.112;2023-02-22T18:35:14;9.20;99.90
23143;DHT22;11740;51.168;4.112;2023-02-22T18:37:41;9.20;99.90
23143;DHT22;11740;51.168;4.112;2023-02-22T18:40:09;9.20;99.90
23143;DHT22;11740;51.168;4.112;2023-02-22T18:42:37;9.10;99.90
23143;DHT22;11740;51.168;4.112;2023-02-22T18:45:05;9.10;99.90
23143;DHT22;11740;51.168;4.112;2023-02-22T18:47:37;9.10;99.90
23143;DHT22;11740;51.168;4.112;2023-02-22T18:50:06;9.10;99.90
23143;DHT22;11740;51.168;4.112;2023-02-22T18:52:34;9.20;99.90
23143;DHT22;11740;51.168;4.112;2023-02-22T18:55:14;9.10;99.90
23143;DHT22;11740;51.168;4.112;2023-02-22T18:57:44;9.10;99.90
23143;DHT22;11740;51.168;4.112;2023-02-22T19:00:15;9.10;99.90
23143;DHT22;11740;51.168;4.112;2023-02-22T19:02:44;9.10;99.90
23143;DHT22;11740;51.168;4.112;2023-02-22T19:05:12;9.10;99.90
23143;DHT22;11740;51.168;4.112;2023-02-22T19:07:43;9.00;99.90
23143;DHT22;11740;51.168;4.112;2023-02-22T19:10:10;9.10;99.90
23143;DHT22;11740;51.168;4.112;2023-02-22T19:12:38;9.00;99.90
23143;DHT22;11740;51.168;4.112;2023-02-22T19:15:05;9.00;99.90